sensor_id;sensor_type;location;lat;lon;timestamp;temperature;humidity
17423;DHT22;8829;47.932;7.810;2022-12-07T00:00:52;3.10;99.90
17423;DHT22;8829;47.932;7.810;2022-12-07T00:03:19;2.90;99.90
17423;DHT22;8829;47.932;7.810;2022-12-07T00:05:47;2.80;99.90
17423;DHT22;8829;47.932;7.810;2022-12-07T00:08:13;2.80;99.90
17423;DHT22;8829;47.932;7.810;2022-12-07T00:10:40;2.70;99.90
17423;DHT22;8829;47.932;7.810;2022-12-07T00:13:07;2.80;99.90
17423;DHT22;8829;47.932;7.810;2022-12-07T00:15:35;2.80;99.90
17423;DHT22;8829;47.932;7.810;2022-12-07T00:18:02;2.90;99.90
17423;DHT22;8829;47.932;7.810;2022-12-07T00:20:28;2.90;99.90
17423;DHT22;8829;47.932;7.810;2022-12-07T00:22:58;2.80;99.90
17423;DHT22;8829;47.932;7.810;2022-12-07T00:25:25;2.70;99.90
17423;DHT22;8829;47.932;7.810;2022-12-07T00:27:53;2.80;99.90
17423;DHT22;8829;47.932;7.810;2022-12-07T00:30:21;2.80;99.90
17423;DHT22;8829;47.932;7.810;2022-12-07T00:32:49;2.70;99.90
17423;DHT22;8829;47.932;7.810;2022-12-07T00:35:16;2.70;99.90
17423;DHT22;8829;47.932;7.810;2022-12-07T00:37:44;2.60;99.90
17423;DHT22;8829;47.932;7.810;2022-12-07T00:40:11;2.70;99.90
17423;DHT22;8829;47.932;7.810;2022-12-07T00:42:38;2.60;99.90
17423;DHT22;8829;47.932;7.810;2022-12-07T00:45:05;2.60;99.90
17423;DHT22;8829;47.932;7.810;2022-12-07T00:47:33;2.70;99.90
17423;DHT22;8829;47.932;7.810;2022-12-07T00:50:01;2.70;99.90
17423;DHT22;8829;47.932;7.810;2022-12-07T00:52:27;2.70;99.90
17423;DHT22;8829;47.932;7.810;2022-12-07T00:54:54;2.80;99.90
17423;DHT22;8829;47.932;7.810;2022-12-07T00:57:21;2.90;99.90
17423;DHT22;8829;47.932;7.810;2022-12-07T00:59:48;2.80;99.90
17423;DHT22;8829;47.932;7.810;2022-12-07T01:02:15;2.90;99.90
17423;DHT22;8829;47.932;7.810;2022-12-07T01:04:42;2.90;99.90
17423;DHT22;8829;47.932;7.810;2022-12-07T01:07:10;2.90;99.90
17423;DHT22;8829;47.932;7.810;2022-12-07T01:09:36;3.00;99.90
17423;DHT22;8829;47.932;7.810;2022-12-07T01:12:04;3.00;99.90
17423;DHT22;8829;47.932;7.810;2022-12-07T01:14:30;3.00;99.90
17423;DHT22;8829;47.932;7.810;2022-12-07T01:16:57;3.00;99.90
17423;DHT22;8829;47.932;7.810;2022-12-07T01:19:24;3.00;99.90
17423;DHT22;8829;47.932;7.810;2022-12-07T01:21:50;3.10;99.90
17423;DHT22;8829;47.932;7.810;2022-12-07T01:24:20;3.10;99.90
17423;DHT22;8829;47.932;7.810;2022-12-07T01:26:48;3.10;99.90
17423;DHT22;8829;47.932;7.810;2022-12-07T01:29:16;3.10;99.90
17423;DHT22;8829;47.932;7.810;2022-12-07T01:31:43;3.10;99.90
17423;DHT22;8829;47.932;7.810;2022-12-07T01:34:10;3.10;99.90
17423;DHT22;8829;47.932;7.810;2022-12-07T01:36:37;2.90;99.90
17423;DHT22;8829;47.932;7.810;2022-12-07T01:39:06;3.00;99.90
17423;DHT22;8829;47.932;7.810;2022-12-07T01:41:38;2.90;99.90
17423;DHT22;8829;47.932;7.810;2022-12-07T01:44:12;2.90;99.90
17423;DHT22;8829;47.932;7.810;2022-12-07T01:46:40;3.10;99.90
17423;DHT22;8829;47.932;7.810;2022-12-07T01:49:11;3.20;99.90
17423;DHT22;8829;47.932;7.810;2022-12-07T01:51:42;3.30;99.90
17423;DHT22;8829;47.932;7.810;2022-12-07T01:54:10;3.50;99.90
17423;DHT22;8829;47.932;7.810;2022-12-07T01:56:40;3.50;99.90
17423;DHT22;8829;47.932;7.810;2022-12-07T01:59:09;3.60;99.90
17423;DHT22;8829;47.932;7.810;2022-12-07T02:01:36;3.70;99.90
17423;DHT22;8829;47.932;7.810;2022-12-07T02:04:03;3.70;99.90
17423;DHT22;8829;47.932;7.810;2022-12-07T02:06:31;3.60;99.90
17423;DHT22;8829;47.932;7.810;2022-12-07T02:08:58;3.70;99.90
17423;DHT22;8829;47.932;7.810;2022-12-07T02:11:25;3.70;99.90
17423;DHT22;8829;47.932;7.810;2022-12-07T02:13:54;3.60;99.90
17423;DHT22;8829;47.932;7.810;2022-12-07T02:16:31;3.60;99.90
17423;DHT22;8829;47.932;7.810;2022-12-07T02:19:22;3.70;99.90
17423;DHT22;8829;47.932;7.810;2022-12-07T02:21:54;3.70;99.90
17423;DHT22;8829;47.932;7.810;2022-12-07T02:24:42;3.70;99.90
17423;DHT22;8829;47.932;7.810;2022-12-07T02:27:25;3.70;99.90
17423;DHT22;8829;47.932;7.810;2022-12-07T02:29:59;3.80;99.90
17423;DHT22;8829;47.932;7.810;2022-12-07T02:32:33;3.80;99.90
17423;DHT22;8829;47.932;7.810;2022-12-07T02:35:05;3.80;99.90
17423;DHT22;8829;47.932;7.810;2022-12-07T02:37:37;3.70;99.90
17423;DHT22;8829;47.932;7.810;2022-12-07T02:40:10;3.70;99.90
17423;DHT22;8829;47.932;7.810;2022-12-07T02:42:40;3.60;99.90
17423;DHT22;8829;47.932;7.810;2022-12-07T02:45:12;3.40;99.90
17423;DHT22;8829;47.932;7.810;2022-12-07T02:47:41;3.30;99.90
17423;DHT22;8829;47.932;7.810;2022-12-07T02:50:09;3.10;99.90
17423;DHT22;8829;47.932;7.810;2022-12-07T02:52:35;2.90;99.90
17423;DHT22;8829;47.932;7.810;2022-12-07T02:55:04;2.70;99.90
17423;DHT22;8829;47.932;7.810;2022-12-07T02:57:42;2.70;99.90
17423;DHT22;8829;47.932;7.810;2022-12-07T03:00:15;2.70;99.90
17423;DHT22;8829;47.932;7.810;2022-12-07T03:02:51;2.60;99.90
17423;DHT22;8829;47.932;7.810;2022-12-07T03:05:39;2.50;99.90
17423;DHT22;8829;47.932;7.810;2022-12-07T03:08:15;2.60;99.90
17423;DHT22;8829;47.932;7.810;2022-12-07T03:10:56;2.60;99.90
17423;DHT22;8829;47.932;7.810;2022-12-07T03:13:28;2.60;99.90
17423;DHT22;8829;47.932;7.810;2022-12-07T03:16:03;2.70;99.90
17423;DHT22;8829;47.932;7.810;2022-12-07T03:18:35;2.40;99.90
17423;DHT22;8829;47.932;7.810;2022-12-07T03:21:08;2.40;99.90
17423;DHT22;8829;47.932;7.810;2022-12-07T03:23:38;2.40;99.90
17423;DHT22;8829;47.932;7.810;2022-12-07T03:26:09;2.30;99.90
17423;DHT22;8829;47.932;7.810;2022-12-07T03:28:43;2.30;99.90
17423;DHT22;8829;47.932;7.810;2022-12-07T03:31:16;2.20;99.90
17423;DHT22;8829;47.932;7.810;2022-12-07T03:33:47;2.10;99.90
17423;DHT22;8829;47.932;7.810;2022-12-07T03:36:22;2.10;99.90
17423;DHT22;8829;47.932;7.810;2022-12-07T03:38:54;2.10;99.90
17423;DHT22;8829;47.932;7.810;2022-12-07T03:41:27;2.20;99.90
17423;DHT22;8829;47.932;7.810;2022-12-07T03:43:55;2.20;99.90
17423;DHT22;8829;47.932;7.810;2022-12-07T03:46:32;2.20;99.90
17423;DHT22;8829;47.932;7.810;2022-12-07T03:49:06;2.20;99.90
17423;DHT22;8829;47.932;7.810;2022-12-07T03:51:40;2.20;99.90
17423;DHT22;8829;47.932;7.810;2022-12-07T03:54:13;2.20;99.90
17423;DHT22;8829;47.932;7.810;2022-12-07T03:56:42;2.20;99.90
17423;DHT22;8829;47.932;7.810;2022-12-07T03:59:12;2.10;99.90
17423;DHT22;8829;47.932;7.810;2022-12-07T04:01:43;2.10;99.90
17423;DHT22;8829;47.932;7.810;2022-12-07T04:04:09;2.10;99.90
17423;DHT22;8829;47.932;7.810;2022-12-07T04:06:36;2.10;99.90
17423;DHT22;8829;47.932;7.810;2022-12-07T04:09:03;2.10;99.90
17423;DHT22;8829;47.932;7.810;2022-12-07T04:11:30;2.10;99.90
17423;DHT22;8829;47.932;7.810;2022-12-07T04:13:56;2.10;99.90
17423;DHT22;8829;47.932;7.810;2022-12-07T04:16:42;2.10;99.90
17423;DHT22;8829;47.932;7.810;2022-12-07T04:19:08;2.20;99.90
17423;DHT22;8829;47.932;7.810;2022-12-07T04:21:35;2.20;99.90
17423;DHT22;8829;47.932;7.810;2022-12-07T04:24:02;2.30;99.90
17423;DHT22;8829;47.932;7.810;2022-12-07T04:26:29;2.30;99.90
17423;DHT22;8829;47.932;7.810;2022-12-07T04:28:56;2.30;99.90
17423;DHT22;8829;47.932;7.810;2022-12-07T04:31:22;2.30;99.90
17423;DHT22;8829;47.932;7.810;2022-12-07T04:33:51;2.30;99.90
17423;DHT22;8829;47.932;7.810;2022-12-07T04:36:17;2.30;99.90
17423;DHT22;8829;47.932;7.810;2022-12-07T04:38:45;2.20;99.90
17423;DHT22;8829;47.932;7.810;2022-12-07T04:41:12;2.20;99.90
17423;DHT22;8829;47.932;7.810;2022-12-07T04:43:38;2.30;99.90
17423;DHT22;8829;47.932;7.810;2022-12-07T04:46:06;2.30;99.90
17423;DHT22;8829;47.932;7.810;2022-12-07T04:48:33;2.30;99.90
17423;DHT22;8829;47.932;7.810;2022-12-07T04:51:02;2.30;99.90
17423;DHT22;8829;47.932;7.810;2022-12-07T04:53:29;2.20;99.90
17423;DHT22;8829;47.932;7.810;2022-12-07T04:55:55;2.20;99.90
17423;DHT22;8829;47.932;7.810;2022-12-07T04:58:23;2.30;99.90
17423;DHT22;8829;47.932;7.810;2022-12-07T05:00:54;2.30;99.90
17423;DHT22;8829;47.932;7.810;2022-12-07T05:03:20;2.30;99.90
17423;DHT22;8829;47.932;7.810;2022-12-07T05:05:48;2.30;99.90
17423;DHT22;8829;47.932;7.810;2022-12-07T05:08:16;2.20;99.90
17423;DHT22;8829;47.932;7.810;2022-12-07T05:10:43;2.30;99.90
17423;DHT22;8829;47.932;7.810;2022-12-07T05:13:10;2.20;99.90
17423;DHT22;8829;47.932;7.810;2022-12-07T05:15:36;2.30;99.90
17423;DHT22;8829;47.932;7.810;2022-12-07T05:18:03;2.20;99.90
17423;DHT22;8829;47.932;7.810;2022-12-07T05:20:30;2.20;99.90
17423;DHT22;8829;47.932;7.810;2022-12-07T05:22:57;2.10;99.90
17423;DHT22;8829;47.932;7.810;2022-12-07T05:25:25;2.10;99.90
17423;DHT22;8829;47.932;7.810;2022-12-07T05:27:53;2.10;99.90
17423;DHT22;8829;47.932;7.810;2022-12-07T05:30:21;2.10;99.90
17423;DHT22;8829;47.932;7.810;2022-12-07T05:32:47;2.10;99.90
17423;DHT22;8829;47.932;7.810;2022-12-07T05:35:14;2.10;99.90
17423;DHT22;8829;47.932;7.810;2022-12-07T05:37:41;2.10;99.90
17423;DHT22;8829;47.932;7.810;2022-12-07T05:40:09;2.10;99.90
17423;DHT22;8829;47.932;7.810;2022-12-07T05:42:37;2.10;99.90
17423;DHT22;8829;47.932;7.810;2022-12-07T05:45:05;2.10;99.90
17423;DHT22;8829;47.932;7.810;2022-12-07T05:47:32;2.10;99.90
17423;DHT22;8829;47.932;7.810;2022-12-07T05:49:59;2.10;99.90
17423;DHT22;8829;47.932;7.810;2022-12-07T05:52:25;2.10;99.90
17423;DHT22;8829;47.932;7.810;2022-12-07T05:54:52;2.00;99.90
17423;DHT22;8829;47.932;7.810;2022-12-07T05:57:19;2.10;99.90
17423;DHT22;8829;47.932;7.810;2022-12-07T05:59:47;2.10;99.90
17423;DHT22;8829;47.932;7.810;2022-12-07T06:02:15;2.10;99.90
17423;DHT22;8829;47.932;7.810;2022-12-07T06:04:45;2.10;99.90
17423;DHT22;8829;47.932;7.810;2022-12-07T06:07:14;2.20;99.90
17423;DHT22;8829;47.932;7.810;2022-12-07T06:09:41;2.20;99.90
17423;DHT22;8829;47.932;7.810;2022-12-07T06:12:09;2.30;99.90
17423;DHT22;8829;47.932;7.810;2022-12-07T06:14:55;2.10;99.90
17423;DHT22;8829;47.932;7.810;2022-12-07T06:17:21;2.20;99.90
17423;DHT22;8829;47.932;7.810;2022-12-07T06:19:48;2.10;99.90
17423;DHT22;8829;47.932;7.810;2022-12-07T06:22:15;2.10;99.90
17423;DHT22;8829;47.932;7.810;2022-12-07T06:24:43;2.00;99.90
17423;DHT22;8829;47.932;7.810;2022-12-07T06:27:10;1.80;99.90
17423;DHT22;8829;47.932;7.810;2022-12-07T06:29:37;1.60;99.90
17423;DHT22;8829;47.932;7.810;2022-12-07T06:32:05;1.60;99.90
17423;DHT22;8829;47.932;7.810;2022-12-07T06:34:32;1.70;99.90
17423;DHT22;8829;47.932;7.810;2022-12-07T06:36:59;1.60;99.90
17423;DHT22;8829;47.932;7.810;2022-12-07T06:39:27;1.20;99.90
17423;DHT22;8829;47.932;7.810;2022-12-07T06:41:56;1.20;99.90
17423;DHT22;8829;47.932;7.810;2022-12-07T06:44:23;1.00;99.90
17423;DHT22;8829;47.932;7.810;2022-12-07T06:46:51;1.00;99.90
17423;DHT22;8829;47.932;7.810;2022-12-07T06:49:19;1.00;99.90
17423;DHT22;8829;47.932;7.810;2022-12-07T06:51:47;0.90;99.90
17423;DHT22;8829;47.932;7.810;2022-12-07T06:54:15;1.00;99.90
17423;DHT22;8829;47.932;7.810;2022-12-07T06:56:42;0.90;99.90
17423;DHT22;8829;47.932;7.810;2022-12-07T06:59:09;0.70;99.90
17423;DHT22;8829;47.932;7.810;2022-12-07T07:01:36;0.50;99.90
17423;DHT22;8829;47.932;7.810;2022-12-07T07:04:03;0.40;99.90
17423;DHT22;8829;47.932;7.810;2022-12-07T07:06:31;0.30;99.90
17423;DHT22;8829;47.932;7.810;2022-12-07T07:08:58;0.30;99.90
17423;DHT22;8829;47.932;7.810;2022-12-07T07:11:25;0.30;99.90
17423;DHT22;8829;47.932;7.810;2022-12-07T07:13:52;0.20;99.90
17423;DHT22;8829;47.932;7.810;2022-12-07T07:16:22;0.20;99.90
17423;DHT22;8829;47.932;7.810;2022-12-07T07:18:49;0.20;99.90
17423;DHT22;8829;47.932;7.810;2022-12-07T07:21:16;0.20;99.90
17423;DHT22;8829;47.932;7.810;2022-12-07T07:23:45;0.30;99.90
17423;DHT22;8829;47.932;7.810;2022-12-07T07:26:12;0.30;99.90
17423;DHT22;8829;47.932;7.810;2022-12-07T07:28:39;0.40;99.90
17423;DHT22;8829;47.932;7.810;2022-12-07T07:31:05;0.30;99.90
17423;DHT22;8829;47.932;7.810;2022-12-07T07:33:32;0.30;99.90
17423;DHT22;8829;47.932;7.810;2022-12-07T07:35:59;0.30;99.90
17423;DHT22;8829;47.932;7.810;2022-12-07T07:38:26;0.40;99.90
17423;DHT22;8829;47.932;7.810;2022-12-07T07:40:54;0.50;99.90
17423;DHT22;8829;47.932;7.810;2022-12-07T07:43:21;0.70;99.90
17423;DHT22;8829;47.932;7.810;2022-12-07T07:45:47;0.70;99.90
17423;DHT22;8829;47.932;7.810;2022-12-07T07:48:14;0.90;99.90
17423;DHT22;8829;47.932;7.810;2022-12-07T07:50:41;1.00;99.90
17423;DHT22;8829;47.932;7.810;2022-12-07T07:53:07;1.20;99.90
17423;DHT22;8829;47.932;7.810;2022-12-07T07:55:34;1.20;99.90
17423;DHT22;8829;47.932;7.810;2022-12-07T07:58:02;1.20;99.90
17423;DHT22;8829;47.932;7.810;2022-12-07T08:00:29;1.20;99.90
17423;DHT22;8829;47.932;7.810;2022-12-07T08:02:56;1.10;99.90
17423;DHT22;8829;47.932;7.810;2022-12-07T08:05:22;1.10;99.90
17423;DHT22;8829;47.932;7.810;2022-12-07T08:07:49;1.10;99.90
17423;DHT22;8829;47.932;7.810;2022-12-07T08:10:16;1.00;99.90
17423;DHT22;8829;47.932;7.810;2022-12-07T08:12:43;1.00;99.90
17423;DHT22;8829;47.932;7.810;2022-12-07T08:15:30;0.90;99.90
17423;DHT22;8829;47.932;7.810;2022-12-07T08:17:58;1.00;99.90
17423;DHT22;8829;47.932;7.810;2022-12-07T08:20:25;1.00;99.90
17423;DHT22;8829;47.932;7.810;2022-12-07T08:22:52;1.00;99.90
17423;DHT22;8829;47.932;7.810;2022-12-07T08:25:19;0.90;99.90
17423;DHT22;8829;47.932;7.810;2022-12-07T08:27:46;1.00;99.90
17423;DHT22;8829;47.932;7.810;2022-12-07T08:30:13;1.00;99.90
17423;DHT22;8829;47.932;7.810;2022-12-07T08:32:41;1.00;99.90
17423;DHT22;8829;47.932;7.810;2022-12-07T08:35:08;1.00;99.90
17423;DHT22;8829;47.932;7.810;2022-12-07T08:37:35;1.00;99.90
17423;DHT22;8829;47.932;7.810;2022-12-07T08:40:03;1.10;99.90
17423;DHT22;8829;47.932;7.810;2022-12-07T08:42:30;1.20;99.90
17423;DHT22;8829;47.932;7.810;2022-12-07T08:45:04;1.20;99.90
17423;DHT22;8829;47.932;7.810;2022-12-07T08:47:31;1.30;99.90
17423;DHT22;8829;47.932;7.810;2022-12-07T08:50:02;1.30;99.90
17423;DHT22;8829;47.932;7.810;2022-12-07T08:52:29;1.40;99.90
17423;DHT22;8829;47.932;7.810;2022-12-07T08:54:56;1.40;99.90
17423;DHT22;8829;47.932;7.810;2022-12-07T08:57:24;1.40;99.90
17423;DHT22;8829;47.932;7.810;2022-12-07T08:59:51;1.40;99.90
17423;DHT22;8829;47.932;7.810;2022-12-07T09:02:17;1.50;99.90
17423;DHT22;8829;47.932;7.810;2022-12-07T09:04:44;1.50;99.90
17423;DHT22;8829;47.932;7.810;2022-12-07T09:07:13;1.60;99.90
17423;DHT22;8829;47.932;7.810;2022-12-07T09:09:40;1.60;99.90
17423;DHT22;8829;47.932;7.810;2022-12-07T09:12:07;1.50;99.90
17423;DHT22;8829;47.932;7.810;2022-12-07T09:14:34;1.50;99.90
17423;DHT22;8829;47.932;7.810;2022-12-07T09:17:05;1.40;99.90
17423;DHT22;8829;47.932;7.810;2022-12-07T09:19:33;1.40;99.90
17423;DHT22;8829;47.932;7.810;2022-12-07T09:22:00;1.50;99.90
17423;DHT22;8829;47.932;7.810;2022-12-07T09:24:28;1.40;99.90
17423;DHT22;8829;47.932;7.810;2022-12-07T09:26:55;1.40;99.90
17423;DHT22;8829;47.932;7.810;2022-12-07T09:29:22;1.40;99.90
17423;DHT22;8829;47.932;7.810;2022-12-07T09:31:50;1.50;99.90
17423;DHT22;8829;47.932;7.810;2022-12-07T09:34:17;1.50;99.90
17423;DHT22;8829;47.932;7.810;2022-12-07T09:36:44;1.50;99.90
17423;DHT22;8829;47.932;7.810;2022-12-07T09:39:11;1.50;99.90
17423;DHT22;8829;47.932;7.810;2022-12-07T09:41:40;1.50;99.90
17423;DHT22;8829;47.932;7.810;2022-12-07T09:44:11;1.50;99.90
17423;DHT22;8829;47.932;7.810;2022-12-07T09:46:40;1.60;99.90
17423;DHT22;8829;47.932;7.810;2022-12-07T09:49:12;1.60;99.90
17423;DHT22;8829;47.932;7.810;2022-12-07T09:51:40;1.60;99.90
17423;DHT22;8829;47.932;7.810;2022-12-07T09:54:08;1.70;99.90
17423;DHT22;8829;47.932;7.810;2022-12-07T09:56:40;1.70;99.90
17423;DHT22;8829;47.932;7.810;2022-12-07T09:59:13;1.70;99.90
17423;DHT22;8829;47.932;7.810;2022-12-07T10:01:42;1.80;99.90
17423;DHT22;8829;47.932;7.810;2022-12-07T10:04:12;1.90;99.90
17423;DHT22;8829;47.932;7.810;2022-12-07T10:06:41;1.80;99.90
17423;DHT22;8829;47.932;7.810;2022-12-07T10:09:10;1.80;99.90
17423;DHT22;8829;47.932;7.810;2022-12-07T10:12:00;1.80;99.90
17423;DHT22;8829;47.932;7.810;2022-12-07T10:14:28;1.80;99.90
17423;DHT22;8829;47.932;7.810;2022-12-07T10:16:56;1.80;99.90
17423;DHT22;8829;47.932;7.810;2022-12-07T10:19:25;1.80;99.90
17423;DHT22;8829;47.932;7.810;2022-12-07T10:22:04;1.80;99.90
17423;DHT22;8829;47.932;7.810;2022-12-07T10:24:31;1.90;99.90
17423;DHT22;8829;47.932;7.810;2022-12-07T10:26:59;2.00;99.90
17423;DHT22;8829;47.932;7.810;2022-12-07T10:29:30;2.00;99.90
17423;DHT22;8829;47.932;7.810;2022-12-07T10:32:00;2.20;99.90
17423;DHT22;8829;47.932;7.810;2022-12-07T10:34:29;2.20;99.90
17423;DHT22;8829;47.932;7.810;2022-12-07T10:37:13;2.30;99.90
17423;DHT22;8829;47.932;7.810;2022-12-07T10:39:42;2.30;99.90
17423;DHT22;8829;47.932;7.810;2022-12-07T10:42:18;2.40;99.90
17423;DHT22;8829;47.932;7.810;2022-12-07T10:44:46;2.50;99.90
17423;DHT22;8829;47.932;7.810;2022-12-07T10:47:25;2.70;99.90
17423;DHT22;8829;47.932;7.810;2022-12-07T10:50:11;2.70;99.90
17423;DHT22;8829;47.932;7.810;2022-12-07T10:53:00;2.90;99.90
17423;DHT22;8829;47.932;7.810;2022-12-07T10:55:36;3.00;99.90
17423;DHT22;8829;47.932;7.810;2022-12-07T10:58:27;3.00;99.90
17423;DHT22;8829;47.932;7.810;2022-12-07T11:01:03;3.10;99.90
17423;DHT22;8829;47.932;7.810;2022-12-07T11:03:45;3.20;99.90
17423;DHT22;8829;47.932;7.810;2022-12-07T11:06:25;3.20;99.90
17423;DHT22;8829;47.932;7.810;2022-12-07T11:09:03;3.20;99.90
17423;DHT22;8829;47.932;7.810;2022-12-07T11:11:36;3.20;99.90
17423;DHT22;8829;47.932;7.810;2022-12-07T11:14:13;3.20;99.90
17423;DHT22;8829;47.932;7.810;2022-12-07T11:16:52;3.20;99.90
17423;DHT22;8829;47.932;7.810;2022-12-07T11:19:39;3.40;99.90
17423;DHT22;8829;47.932;7.810;2022-12-07T11:22:19;3.40;99.90
17423;DHT22;8829;47.932;7.810;2022-12-07T11:24:51;3.50;99.90
17423;DHT22;8829;47.932;7.810;2022-12-07T11:27:26;3.50;99.90
17423;DHT22;8829;47.932;7.810;2022-12-07T11:30:06;3.50;99.90
17423;DHT22;8829;47.932;7.810;2022-12-07T11:32:47;3.60;99.90
17423;DHT22;8829;47.932;7.810;2022-12-07T11:35:23;3.60;99.90
17423;DHT22;8829;47.932;7.810;2022-12-07T11:37:56;3.80;99.90
17423;DHT22;8829;47.932;7.810;2022-12-07T11:40:27;3.80;99.90
17423;DHT22;8829;47.932;7.810;2022-12-07T11:42:59;3.90;99.90
17423;DHT22;8829;47.932;7.810;2022-12-07T11:45:31;4.00;99.90
17423;DHT22;8829;47.932;7.810;2022-12-07T11:48:00;4.00;99.90
17423;DHT22;8829;47.932;7.810;2022-12-07T11:50:34;4.00;99.90
17423;DHT22;8829;47.932;7.810;2022-12-07T11:53:05;4.10;99.90
17423;DHT22;8829;47.932;7.810;2022-12-07T11:55:41;4.20;99.90
17423;DHT22;8829;47.932;7.810;2022-12-07T11:58:20;4.10;99.90
17423;DHT22;8829;47.932;7.810;2022-12-07T12:00:52;4.20;99.90
17423;DHT22;8829;47.932;7.810;2022-12-07T12:03:28;4.20;99.90
17423;DHT22;8829;47.932;7.810;2022-12-07T12:05:57;4.30;99.90
17423;DHT22;8829;47.932;7.810;2022-12-07T12:08:28;4.30;99.90
17423;DHT22;8829;47.932;7.810;2022-12-07T12:11:05;4.30;99.90
17423;DHT22;8829;47.932;7.810;2022-12-07T12:13:52;4.40;99.90
17423;DHT22;8829;47.932;7.810;2022-12-07T12:16:38;4.50;99.90
17423;DHT22;8829;47.932;7.810;2022-12-07T12:19:22;4.50;99.90
17423;DHT22;8829;47.932;7.810;2022-12-07T12:21:55;4.60;99.90
17423;DHT22;8829;47.932;7.810;2022-12-07T12:24:27;4.60;99.90
17423;DHT22;8829;47.932;7.810;2022-12-07T12:27:00;4.90;99.90
17423;DHT22;8829;47.932;7.810;2022-12-07T12:29:32;5.00;99.90
17423;DHT22;8829;47.932;7.810;2022-12-07T12:32:13;5.10;99.90
17423;DHT22;8829;47.932;7.810;2022-12-07T12:34:56;5.50;99.90
17423;DHT22;8829;47.932;7.810;2022-12-07T12:37:40;5.30;99.90
17423;DHT22;8829;47.932;7.810;2022-12-07T12:43:41;5.10;99.90
17423;DHT22;8829;47.932;7.810;2022-12-07T12:46:37;5.10;99.90
17423;DHT22;8829;47.932;7.810;2022-12-07T12:55:18;5.00;99.90
17423;DHT22;8829;47.932;7.810;2022-12-07T12:57:48;5.00;99.90
17423;DHT22;8829;47.932;7.810;2022-12-07T13:00:34;5.00;99.90
17423;DHT22;8829;47.932;7.810;2022-12-07T13:03:01;4.90;99.90
17423;DHT22;8829;47.932;7.810;2022-12-07T13:05:29;4.80;99.90
17423;DHT22;8829;47.932;7.810;2022-12-07T13:07:58;4.80;99.90
17423;DHT22;8829;47.932;7.810;2022-12-07T13:10:40;4.80;99.90
17423;DHT22;8829;47.932;7.810;2022-12-07T13:13:32;4.80;99.90
17423;DHT22;8829;47.932;7.810;2022-12-07T13:16:38;4.70;99.90
17423;DHT22;8829;47.932;7.810;2022-12-07T13:22:54;4.80;99.90
17423;DHT22;8829;47.932;7.810;2022-12-07T13:25:33;4.80;99.90
17423;DHT22;8829;47.932;7.810;2022-12-07T13:28:03;4.80;99.90
17423;DHT22;8829;47.932;7.810;2022-12-07T13:30:43;4.90;99.90
17423;DHT22;8829;47.932;7.810;2022-12-07T13:33:12;4.90;99.90
17423;DHT22;8829;47.932;7.810;2022-12-07T13:35:40;4.80;99.90
17423;DHT22;8829;47.932;7.810;2022-12-07T13:38:20;4.80;99.90
17423;DHT22;8829;47.932;7.810;2022-12-07T13:41:13;4.70;99.90
17423;DHT22;8829;47.932;7.810;2022-12-07T13:43:45;4.90;99.90
17423;DHT22;8829;47.932;7.810;2022-12-07T13:46:12;4.90;99.90
17423;DHT22;8829;47.932;7.810;2022-12-07T13:48:45;4.90;99.90
17423;DHT22;8829;47.932;7.810;2022-12-07T13:51:18;4.90;99.90
17423;DHT22;8829;47.932;7.810;2022-12-07T13:53:49;4.80;99.90
17423;DHT22;8829;47.932;7.810;2022-12-07T13:56:18;4.80;99.90
17423;DHT22;8829;47.932;7.810;2022-12-07T13:58:47;4.70;99.90
17423;DHT22;8829;47.932;7.810;2022-12-07T14:01:15;4.60;99.90
17423;DHT22;8829;47.932;7.810;2022-12-07T14:03:42;4.60;99.90
17423;DHT22;8829;47.932;7.810;2022-12-07T14:06:23;4.60;99.90
17423;DHT22;8829;47.932;7.810;2022-12-07T14:09:07;4.60;99.90
17423;DHT22;8829;47.932;7.810;2022-12-07T14:11:35;4.60;99.90
17423;DHT22;8829;47.932;7.810;2022-12-07T14:14:03;4.60;99.90
17423;DHT22;8829;47.932;7.810;2022-12-07T14:16:33;4.60;99.90
17423;DHT22;8829;47.932;7.810;2022-12-07T14:19:02;4.60;99.90
17423;DHT22;8829;47.932;7.810;2022-12-07T14:21:30;4.60;99.90
17423;DHT22;8829;47.932;7.810;2022-12-07T14:24:14;4.60;99.90
17423;DHT22;8829;47.932;7.810;2022-12-07T14:26:44;4.60;99.90
17423;DHT22;8829;47.932;7.810;2022-12-07T14:29:35;4.50;99.90
17423;DHT22;8829;47.932;7.810;2022-12-07T14:32:20;4.50;99.90
17423;DHT22;8829;47.932;7.810;2022-12-07T14:35:02;4.40;99.90
17423;DHT22;8829;47.932;7.810;2022-12-07T14:37:30;4.40;99.90
17423;DHT22;8829;47.932;7.810;2022-12-07T14:39:57;4.40;99.90
17423;DHT22;8829;47.932;7.810;2022-12-07T14:42:27;4.30;99.90
17423;DHT22;8829;47.932;7.810;2022-12-07T14:44:55;4.30;99.90
17423;DHT22;8829;47.932;7.810;2022-12-07T14:47:22;4.30;99.90
17423;DHT22;8829;47.932;7.810;2022-12-07T14:49:49;4.30;99.90
17423;DHT22;8829;47.932;7.810;2022-12-07T14:52:18;4.20;99.90
17423;DHT22;8829;47.932;7.810;2022-12-07T14:54:45;4.30;99.90
17423;DHT22;8829;47.932;7.810;2022-12-07T14:57:12;4.30;99.90
17423;DHT22;8829;47.932;7.810;2022-12-07T14:59:40;4.20;99.90
17423;DHT22;8829;47.932;7.810;2022-12-07T15:02:09;4.20;99.90
17423;DHT22;8829;47.932;7.810;2022-12-07T15:04:36;4.20;99.90
17423;DHT22;8829;47.932;7.810;2022-12-07T15:07:05;4.10;99.90
17423;DHT22;8829;47.932;7.810;2022-12-07T15:09:32;4.20;99.90
17423;DHT22;8829;47.932;7.810;2022-12-07T15:11:59;4.30;99.90
17423;DHT22;8829;47.932;7.810;2022-12-07T15:14:26;4.20;99.90
17423;DHT22;8829;47.932;7.810;2022-12-07T15:16:54;4.20;99.90
17423;DHT22;8829;47.932;7.810;2022-12-07T15:19:22;4.20;99.90
17423;DHT22;8829;47.932;7.810;2022-12-07T15:21:52;4.10;99.90
17423;DHT22;8829;47.932;7.810;2022-12-07T15:24:19;4.10;99.90
17423;DHT22;8829;47.932;7.810;2022-12-07T15:26:47;4.00;99.90
17423;DHT22;8829;47.932;7.810;2022-12-07T15:29:13;4.00;99.90
17423;DHT22;8829;47.932;7.810;2022-12-07T15:31:41;4.00;99.90
17423;DHT22;8829;47.932;7.810;2022-12-07T15:34:10;4.00;99.90
17423;DHT22;8829;47.932;7.810;2022-12-07T15:36:37;4.00;99.90
17423;DHT22;8829;47.932;7.810;2022-12-07T15:39:04;3.90;99.90
17423;DHT22;8829;47.932;7.810;2022-12-07T15:41:30;3.90;99.90
17423;DHT22;8829;47.932;7.810;2022-12-07T15:43:58;3.90;99.90
17423;DHT22;8829;47.932;7.810;2022-12-07T15:46:42;3.80;99.90
17423;DHT22;8829;47.932;7.810;2022-12-07T15:49:13;3.40;99.90
17423;DHT22;8829;47.932;7.810;2022-12-07T15:51:42;3.30;99.90
17423;DHT22;8829;47.932;7.810;2022-12-07T15:54:13;3.20;99.90
17423;DHT22;8829;47.932;7.810;2022-12-07T15:56:39;3.10;99.90
17423;DHT22;8829;47.932;7.810;2022-12-07T15:59:06;3.10;99.90
17423;DHT22;8829;47.932;7.810;2022-12-07T16:01:33;3.00;99.90
17423;DHT22;8829;47.932;7.810;2022-12-07T16:04:00;3.00;99.90
17423;DHT22;8829;47.932;7.810;2022-12-07T16:06:28;2.80;99.90
17423;DHT22;8829;47.932;7.810;2022-12-07T16:08:54;2.70;99.90
17423;DHT22;8829;47.932;7.810;2022-12-07T16:11:22;2.70;99.90
17423;DHT22;8829;47.932;7.810;2022-12-07T16:13:49;2.60;99.90
17423;DHT22;8829;47.932;7.810;2022-12-07T16:16:18;2.40;99.90
17423;DHT22;8829;47.932;7.810;2022-12-07T16:18:47;2.40;99.90
17423;DHT22;8829;47.932;7.810;2022-12-07T16:21:15;2.30;99.90
17423;DHT22;8829;47.932;7.810;2022-12-07T16:23:43;2.30;99.90
17423;DHT22;8829;47.932;7.810;2022-12-07T16:26:12;2.20;99.90
17423;DHT22;8829;47.932;7.810;2022-12-07T16:28:39;2.00;99.90
17423;DHT22;8829;47.932;7.810;2022-12-07T16:31:08;1.90;99.90
17423;DHT22;8829;47.932;7.810;2022-12-07T16:33:36;1.90;99.90
17423;DHT22;8829;47.932;7.810;2022-12-07T16:36:05;1.80;99.90